createdAt,value
2022-08-09T00:02:34.118Z,61.82
2022-08-09T00:07:44.879Z,67.64
2022-08-09T00:12:51.664Z,61.81
2022-08-09T00:18:05.968Z,57.09
2022-08-09T00:23:54.643Z,59.52
2022-08-09T00:28:37.026Z,61.69
2022-08-09T00:33:50.626Z,67.85
2022-08-09T00:38:53.903Z,62.40
2022-08-09T00:44:11.235Z,58.42
2022-08-09T00:49:18.751Z,59.78
2022-08-09T00:54:35.267Z,66.04
2022-08-09T00:59:46.258Z,61.34
2022-08-09T01:05:02.685Z,57.02
2022-08-09T01:10:15.624Z,59.87
2022-08-09T01:15:24.142Z,65.36
2022-08-09T01:20:31.433Z,60.47
2022-08-09T01:25:41.994Z,57.00
2022-08-09T01:30:54.832Z,60.41
2022-08-09T01:36:04.516Z,66.28
2022-08-09T01:41:13.095Z,62.26
2022-08-09T01:46:18.253Z,58.10
2022-08-09T01:51:32.456Z,58.69
2022-08-09T01:56:39.359Z,62.91
2022-08-09T02:01:59.231Z,64.85
2022-08-09T02:07:08.280Z,59.93
2022-08-09T02:12:22.481Z,58.31
2022-08-09T02:18:00.573Z,61.63
2022-08-09T02:22:58.049Z,67.33
2022-08-09T02:28:09.716Z,61.68
2022-08-09T02:33:18.275Z,59.98
2022-08-09T02:38:28.594Z,58.90
2022-08-09T02:43:42.639Z,64.76
2022-08-09T02:49:01.354Z,62.81
2022-08-09T02:54:07.587Z,60.21
2022-08-09T02:59:16.045Z,58.05
2022-08-09T03:04:31.767Z,62.69
2022-08-09T03:09:36.060Z,65.34
2022-08-09T03:14:46.997Z,61.29
2022-08-09T03:19:52.818Z,58.87
2022-08-09T03:25:21.306Z,63.91
2022-08-09T03:30:33.033Z,64.64
2022-08-09T03:36:11.285Z,61.36
2022-08-09T03:40:59.338Z,58.16
2022-08-09T03:46:04.251Z,64.44
2022-08-09T03:51:57.701Z,61.88
2022-08-09T03:56:48.040Z,58.71
2022-08-09T04:01:59.080Z,61.50
2022-08-09T04:07:02.713Z,65.06
2022-08-09T04:12:11.926Z,60.65
2022-08-09T04:17:14.585Z,58.08
2022-08-09T04:22:18.620Z,63.87
2022-08-09T04:27:23.947Z,62.62
2022-08-09T04:32:33.797Z,58.02
2022-08-09T04:37:45.827Z,62.66
2022-08-09T04:42:49.263Z,62.69
2022-08-09T04:48:00.227Z,58.04
2022-08-09T04:53:13.309Z,60.66
2022-08-09T04:58:16.388Z,65.21
2022-08-09T05:03:41.033Z,58.89
2022-08-09T05:08:43.906Z,59.94
2022-08-09T05:13:50.101Z,64.02
2022-08-09T05:18:59.365Z,58.81
2022-08-09T05:24:04.077Z,59.39
2022-08-09T05:29:07.354Z,64.39
2022-08-09T05:34:20.499Z,58.66
2022-08-09T05:39:28.986Z,59.31
2022-08-09T05:44:34.614Z,61.57
2022-08-09T05:50:28.137Z,65.84
2022-08-09T05:55:03.133Z,58.61
2022-08-09T06:00:10.982Z,58.15
2022-08-09T06:05:13.586Z,60.59
2022-08-09T06:10:18.063Z,64.88
2022-08-09T06:15:22.070Z,57.97
2022-08-09T06:20:24.613Z,57.72
2022-08-09T06:25:27.072Z,60.52
2022-08-09T06:30:29.529Z,64.42
2022-08-09T06:35:35.746Z,57.38
2022-08-09T06:40:55.037Z,57.98
2022-08-09T06:46:05.990Z,61.98
2022-08-09T06:51:12.941Z,62.62
2022-08-09T06:56:17.325Z,55.91
2022-08-09T07:01:21.537Z,57.63
2022-08-09T07:06:28.050Z,60.01
2022-08-09T07:11:45.572Z,60.44
2022-08-09T07:16:58.038Z,65.92
2022-08-09T07:22:01.015Z,58.02
2022-08-09T07:27:04.691Z,57.82
2022-08-09T07:32:23.515Z,60.30
2022-08-09T07:37:42.709Z,60.48
2022-08-09T07:42:51.478Z,62.22
2022-08-09T07:48:01.483Z,62.01
2022-08-09T07:54:06.552Z,55.49
2022-08-09T07:59:04.427Z,56.70
2022-08-09T08:04:15.092Z,58.13
2022-08-09T08:09:39.738Z,60.69
2022-08-09T08:14:40.439Z,61.78
2022-08-09T08:19:44.518Z,56.01
2022-08-09T08:24:50.936Z,52.99
2022-08-09T08:29:53.966Z,53.59
2022-08-09T08:34:59.279Z,54.81
2022-08-09T08:40:05.528Z,55.16
2022-08-09T08:45:13.545Z,56.54
2022-08-09T08:50:18.283Z,57.44
2022-08-09T08:55:23.366Z,56.70
2022-08-09T09:00:29.998Z,54.74
2022-08-09T09:06:00.394Z,57.62
2022-08-09T09:11:03.784Z,54.63
2022-08-09T09:16:08.083Z,55.42
2022-08-09T09:21:10.788Z,55.14
2022-08-09T09:26:15.259Z,54.21
2022-08-09T09:32:03.960Z,52.17
2022-08-09T09:36:51.290Z,50.81
2022-08-09T09:41:58.534Z,50.03
2022-08-09T09:47:16.421Z,51.70
2022-08-09T09:52:36.450Z,50.25
2022-08-09T09:58:03.665Z,48.66
2022-08-09T10:03:09.091Z,46.89
2022-08-09T10:08:27.775Z,47.11
2022-08-09T10:13:43.039Z,47.65
2022-08-09T10:18:54.262Z,46.79
2022-08-09T10:24:01.401Z,48.22
2022-08-09T10:29:21.366Z,47.92
2022-08-09T10:34:32.785Z,45.12
2022-08-09T10:39:40.842Z,45.13
2022-08-09T10:45:17.014Z,44.01
2022-08-09T10:50:31.454Z,45.64
2022-08-09T10:55:58.340Z,44.38
2022-08-09T11:03:06.510Z,44.99
2022-08-09T11:06:23.444Z,45.62
2022-08-09T11:11:25.949Z,45.08
2022-08-09T11:16:36.267Z,43.73
2022-08-09T11:21:45.716Z,44.00
2022-08-09T11:27:00.175Z,43.69
2022-08-09T11:32:10.397Z,42.25
2022-08-09T11:37:31.250Z,41.86
2022-08-09T11:42:48.370Z,39.34
2022-08-09T11:47:54.631Z,38.75
2022-08-09T11:53:15.958Z,39.11
2022-08-09T11:58:32.783Z,39.07
2022-08-09T12:03:57.251Z,39.00
2022-08-09T12:09:03.578Z,37.31
2022-08-09T12:14:28.576Z,37.62
2022-08-09T12:19:33.676Z,38.13
2022-08-09T12:24:37.047Z,38.57
2022-08-09T12:30:02.019Z,37.18
2022-08-09T12:35:19.168Z,37.21
2022-08-09T12:40:27.262Z,39.81
2022-08-09T12:45:33.707Z,42.04
2022-08-09T12:50:41.280Z,44.15
2022-08-09T12:56:12.496Z,45.19
2022-08-09T13:01:12.300Z,45.81
2022-08-09T13:06:21.735Z,46.42
2022-08-09T13:11:29.119Z,47.24
2022-08-09T13:16:37.576Z,47.46
2022-08-09T13:22:36.962Z,47.47
2022-08-09T13:27:06.076Z,47.39
2022-08-09T13:32:16.610Z,46.69
2022-08-09T13:37:24.753Z,45.96
2022-08-09T13:42:45.992Z,45.96
2022-08-09T13:47:51.878Z,46.27
2022-08-09T13:52:57.139Z,46.28
2022-08-09T13:58:00.533Z,45.73
2022-08-09T14:04:03.653Z,45.90
2022-08-09T14:08:26.812Z,45.30
2022-08-09T14:14:15.287Z,45.29
2022-08-09T14:18:53.455Z,44.51
2022-08-09T14:24:01.123Z,43.70
2022-08-09T14:30:15.192Z,44.37
2022-08-09T14:34:40.942Z,44.60
2022-08-09T14:39:47.854Z,42.83
2022-08-09T14:44:59.491Z,42.21
2022-08-09T14:50:04.664Z,41.90
2022-08-09T14:55:08.185Z,41.49
2022-08-09T15:00:11.874Z,41.52
2022-08-09T15:05:15.964Z,40.05
2022-08-09T15:10:19.429Z,38.72
2022-08-09T15:15:23.619Z,39.45
2022-08-09T15:21:55.998Z,37.12
2022-08-09T15:25:49.100Z,37.87
2022-08-09T15:31:01.729Z,38.04
2022-08-09T15:36:11.330Z,38.92
2022-08-09T15:41:20.006Z,40.35
2022-08-09T15:46:32.395Z,42.60
2022-08-09T15:52:02.829Z,43.47
2022-08-09T15:57:00.136Z,43.92
2022-08-09T16:02:03.436Z,44.01
2022-08-09T16:07:08.142Z,44.67
2022-08-09T16:12:11.606Z,44.73
2022-08-09T16:17:16.927Z,44.14
2022-08-09T16:22:19.845Z,43.19
2022-08-09T16:27:23.012Z,41.34
2022-08-09T16:32:49.752Z,42.06
2022-08-09T16:37:56.967Z,43.97
2022-08-09T16:43:03.053Z,44.82
2022-08-09T16:48:39.805Z,46.54
2022-08-09T16:53:34.159Z,46.49
2022-08-09T16:58:39.706Z,47.79
2022-08-09T17:03:45.130Z,50.19
2022-08-09T17:08:58.965Z,51.83
2022-08-09T17:14:08.576Z,52.99
2022-08-09T17:20:12.601Z,52.38
2022-08-09T17:25:03.754Z,53.59
2022-08-09T17:30:14.215Z,54.59
2022-08-09T17:35:17.392Z,57.01
2022-08-09T17:40:20.061Z,56.40
2022-08-09T17:45:37.578Z,58.96
2022-08-09T17:50:56.486Z,59.36
2022-08-09T17:56:08.064Z,59.43
2022-08-09T18:01:22.366Z,61.39
2022-08-09T18:06:30.846Z,62.19
2022-08-09T18:12:04.991Z,58.22
2022-08-09T18:16:58.505Z,59.85
2022-08-09T18:22:01.043Z,63.22
2022-08-09T18:27:03.810Z,63.01
2022-08-09T18:32:09.786Z,55.86
2022-08-09T18:37:47.890Z,58.00
2022-08-09T18:42:35.127Z,60.56
2022-08-09T18:47:38.979Z,60.61
2022-08-09T18:52:43.023Z,65.78
2022-08-09T18:57:45.697Z,58.82
2022-08-09T19:02:50.963Z,56.07
2022-08-09T19:08:04.555Z,59.27
2022-08-09T19:13:18.004Z,60.62
2022-08-09T19:18:36.538Z,61.00
2022-08-09T19:24:36.156Z,67.25
2022-08-09T19:29:18.392Z,60.84
2022-08-09T19:34:24.746Z,56.49
2022-08-09T19:40:02.275Z,59.58
2022-08-09T19:44:52.171Z,64.62
2022-08-09T19:50:08.382Z,60.38
2022-08-09T19:55:17.453Z,56.53
2022-08-09T20:00:22.019Z,59.07
2022-08-09T20:05:25.052Z,61.12
2022-08-09T20:10:36.194Z,67.21
2022-08-09T20:16:35.458Z,61.52
2022-08-09T20:21:02.223Z,56.75
2022-08-09T20:26:04.997Z,59.52
2022-08-09T20:31:09.469Z,61.78
2022-08-09T20:36:16.260Z,67.69
2022-08-09T20:41:32.464Z,62.44
2022-08-09T20:46:43.226Z,57.70
2022-08-09T20:51:50.564Z,59.91
2022-08-09T20:56:54.134Z,66.28
2022-08-09T21:01:57.205Z,61.57
2022-08-09T21:06:59.738Z,57.93
2022-08-09T21:18:20.657Z,65.46
2022-08-09T21:22:43.141Z,60.62
2022-08-09T21:27:52.119Z,57.27
2022-08-09T21:32:55.586Z,59.55
2022-08-09T21:38:00.459Z,65.57
2022-08-09T21:43:04.198Z,61.31
2022-08-09T21:48:08.699Z,57.65
2022-08-09T21:53:24.059Z,60.24
2022-08-09T21:58:33.520Z,66.54
2022-08-09T22:03:48.532Z,62.00
2022-08-09T22:09:01.074Z,58.70
2022-08-09T22:14:03.597Z,58.63
2022-08-09T22:19:57.746Z,62.52
2022-08-09T22:24:28.527Z,66.79
2022-08-09T22:29:38.535Z,62.01
2022-08-09T22:35:02.695Z,59.42
2022-08-09T22:40:10.661Z,57.92
2022-08-09T22:48:11.730Z,64.77
2022-08-09T22:50:52.644Z,61.21
2022-08-09T22:56:29.375Z,58.75
2022-08-09T23:01:18.236Z,63.08
2022-08-09T23:06:32.573Z,65.16
2022-08-09T23:11:38.514Z,60.99
2022-08-09T23:16:40.895Z,58.15
2022-08-09T23:21:43.340Z,60.51
2022-08-09T23:26:45.992Z,66.74
2022-08-09T23:31:52.519Z,60.97
2022-08-09T23:36:56.734Z,57.92
2022-08-09T23:41:59.343Z,62.50
2022-08-09T23:47:02.121Z,66.44
2022-08-09T23:52:04.957Z,61.72
2022-08-09T23:57:07.401Z,58.92
